sensor_id;sensor_type;location;lat;lon;timestamp;P1;durP1;ratioP1;P2;durP2;ratioP2
18076;SDS011;9165;45.714;11.362;2023-06-26T00:01:46;4.00;;;2.80;;
18076;SDS011;9165;45.714;11.362;2023-06-26T00:04:12;3.60;;;3.20;;
18076;SDS011;9165;45.714;11.362;2023-06-26T00:06:39;3.73;;;2.67;;
18076;SDS011;9165;45.714;11.362;2023-06-26T00:09:07;5.43;;;3.13;;
18076;SDS011;9165;45.714;11.362;2023-06-26T00:11:34;3.53;;;2.80;;
18076;SDS011;9165;45.714;11.362;2023-06-26T00:14:01;4.07;;;3.03;;
18076;SDS011;9165;45.714;11.362;2023-06-26T00:16:27;3.77;;;2.87;;
18076;SDS011;9165;45.714;11.362;2023-06-26T00:18:56;4.20;;;3.17;;
18076;SDS011;9165;45.714;11.362;2023-06-26T00:21:23;4.57;;;2.90;;
18076;SDS011;9165;45.714;11.362;2023-06-26T00:23:50;4.20;;;3.10;;
18076;SDS011;9165;45.714;11.362;2023-06-26T00:26:18;3.53;;;3.00;;
18076;SDS011;9165;45.714;11.362;2023-06-26T00:28:44;3.37;;;3.00;;
18076;SDS011;9165;45.714;11.362;2023-06-26T00:31:11;3.20;;;2.80;;
18076;SDS011;9165;45.714;11.362;2023-06-26T00:33:38;4.87;;;2.97;;
18076;SDS011;9165;45.714;11.362;2023-06-26T00:36:04;3.57;;;2.60;;
18076;SDS011;9165;45.714;11.362;2023-06-26T00:38:31;5.93;;;2.83;;
18076;SDS011;9165;45.714;11.362;2023-06-26T00:40:58;5.17;;;3.40;;
18076;SDS011;9165;45.714;11.362;2023-06-26T00:43:26;4.27;;;2.60;;
18076;SDS011;9165;45.714;11.362;2023-06-26T00:45:52;6.07;;;3.60;;
18076;SDS011;9165;45.714;11.362;2023-06-26T00:48:19;3.87;;;3.03;;
18076;SDS011;9165;45.714;11.362;2023-06-26T00:50:45;5.27;;;3.03;;
18076;SDS011;9165;45.714;11.362;2023-06-26T00:53:12;2.67;;;2.47;;
18076;SDS011;9165;45.714;11.362;2023-06-26T00:55:38;9.73;;;3.13;;
18076;SDS011;9165;45.714;11.362;2023-06-26T00:58:05;6.33;;;2.80;;
18076;SDS011;9165;45.714;11.362;2023-06-26T01:00:33;6.40;;;3.10;;
18076;SDS011;9165;45.714;11.362;2023-06-26T01:02:59;4.27;;;2.93;;
18076;SDS011;9165;45.714;11.362;2023-06-26T01:05:26;4.40;;;3.10;;
18076;SDS011;9165;45.714;11.362;2023-06-26T01:07:53;6.47;;;3.30;;
18076;SDS011;9165;45.714;11.362;2023-06-26T01:10:20;3.00;;;2.70;;
18076;SDS011;9165;45.714;11.362;2023-06-26T01:12:46;5.50;;;2.70;;
18076;SDS011;9165;45.714;11.362;2023-06-26T01:15:13;3.60;;;3.07;;
18076;SDS011;9165;45.714;11.362;2023-06-26T01:17:41;3.97;;;2.80;;
18076;SDS011;9165;45.714;11.362;2023-06-26T01:20:10;4.77;;;3.07;;
18076;SDS011;9165;45.714;11.362;2023-06-26T01:22:38;3.00;;;2.70;;
18076;SDS011;9165;45.714;11.362;2023-06-26T01:25:12;3.80;;;2.77;;
18076;SDS011;9165;45.714;11.362;2023-06-26T01:27:45;4.37;;;3.60;;
18076;SDS011;9165;45.714;11.362;2023-06-26T01:30:12;7.00;;;3.40;;
18076;SDS011;9165;45.714;11.362;2023-06-26T01:32:39;4.10;;;2.77;;
18076;SDS011;9165;45.714;11.362;2023-06-26T01:35:06;3.07;;;2.77;;
18076;SDS011;9165;45.714;11.362;2023-06-26T01:37:33;3.73;;;3.20;;
18076;SDS011;9165;45.714;11.362;2023-06-26T01:39:59;4.93;;;3.00;;
18076;SDS011;9165;45.714;11.362;2023-06-26T01:42:26;4.83;;;2.70;;
18076;SDS011;9165;45.714;11.362;2023-06-26T01:44:54;3.23;;;2.93;;
18076;SDS011;9165;45.714;11.362;2023-06-26T01:47:23;4.43;;;2.70;;
18076;SDS011;9165;45.714;11.362;2023-06-26T01:49:51;6.40;;;3.20;;
18076;SDS011;9165;45.714;11.362;2023-06-26T01:52:20;3.07;;;2.70;;
18076;SDS011;9165;45.714;11.362;2023-06-26T01:54:55;3.30;;;3.00;;
18076;SDS011;9165;45.714;11.362;2023-06-26T01:57:22;3.67;;;2.90;;
18076;SDS011;9165;45.714;11.362;2023-06-26T01:59:50;6.07;;;3.23;;
18076;SDS011;9165;45.714;11.362;2023-06-26T02:02:18;3.10;;;2.83;;
18076;SDS011;9165;45.714;11.362;2023-06-26T02:04:45;3.07;;;2.80;;
18076;SDS011;9165;45.714;11.362;2023-06-26T02:07:13;3.23;;;2.53;;
18076;SDS011;9165;45.714;11.362;2023-06-26T02:09:40;4.30;;;2.87;;
18076;SDS011;9165;45.714;11.362;2023-06-26T02:12:06;3.63;;;3.10;;
18076;SDS011;9165;45.714;11.362;2023-06-26T02:14:33;5.30;;;3.27;;
18076;SDS011;9165;45.714;11.362;2023-06-26T02:17:00;3.97;;;2.53;;
18076;SDS011;9165;45.714;11.362;2023-06-26T02:19:28;3.93;;;3.30;;
18076;SDS011;9165;45.714;11.362;2023-06-26T02:21:54;3.37;;;2.73;;
18076;SDS011;9165;45.714;11.362;2023-06-26T02:24:21;6.03;;;2.80;;
18076;SDS011;9165;45.714;11.362;2023-06-26T02:26:48;3.77;;;3.03;;
18076;SDS011;9165;45.714;11.362;2023-06-26T02:29:15;4.40;;;2.80;;
18076;SDS011;9165;45.714;11.362;2023-06-26T02:31:42;2.80;;;2.60;;
18076;SDS011;9165;45.714;11.362;2023-06-26T02:34:08;4.33;;;2.70;;
18076;SDS011;9165;45.714;11.362;2023-06-26T02:36:36;4.40;;;3.30;;
18076;SDS011;9165;45.714;11.362;2023-06-26T02:39:02;3.10;;;2.80;;
18076;SDS011;9165;45.714;11.362;2023-06-26T02:41:29;3.30;;;2.93;;
18076;SDS011;9165;45.714;11.362;2023-06-26T02:43:56;5.20;;;3.33;;
18076;SDS011;9165;45.714;11.362;2023-06-26T02:46:22;4.70;;;3.37;;
18076;SDS011;9165;45.714;11.362;2023-06-26T02:48:49;4.33;;;3.30;;
18076;SDS011;9165;45.714;11.362;2023-06-26T02:51:16;3.67;;;3.03;;
18076;SDS011;9165;45.714;11.362;2023-06-26T02:53:44;4.13;;;3.07;;
18076;SDS011;9165;45.714;11.362;2023-06-26T02:56:11;3.03;;;2.73;;
18076;SDS011;9165;45.714;11.362;2023-06-26T02:58:37;3.47;;;2.83;;
18076;SDS011;9165;45.714;11.362;2023-06-26T03:01:04;4.33;;;2.60;;
18076;SDS011;9165;45.714;11.362;2023-06-26T03:03:30;4.07;;;3.30;;
18076;SDS011;9165;45.714;11.362;2023-06-26T03:06:05;3.60;;;3.27;;
18076;SDS011;9165;45.714;11.362;2023-06-26T03:08:32;2.97;;;2.60;;
18076;SDS011;9165;45.714;11.362;2023-06-26T03:11:00;3.50;;;2.83;;
18076;SDS011;9165;45.714;11.362;2023-06-26T03:13:26;5.50;;;2.90;;
18076;SDS011;9165;45.714;11.362;2023-06-26T03:15:53;3.07;;;2.77;;
18076;SDS011;9165;45.714;11.362;2023-06-26T03:18:19;5.50;;;3.20;;
18076;SDS011;9165;45.714;11.362;2023-06-26T03:20:46;5.40;;;3.03;;
18076;SDS011;9165;45.714;11.362;2023-06-26T03:23:13;5.97;;;3.17;;
18076;SDS011;9165;45.714;11.362;2023-06-26T03:25:40;3.70;;;2.90;;
18076;SDS011;9165;45.714;11.362;2023-06-26T03:28:08;3.47;;;3.00;;
18076;SDS011;9165;45.714;11.362;2023-06-26T03:30:34;3.03;;;2.70;;
18076;SDS011;9165;45.714;11.362;2023-06-26T03:33:01;4.47;;;2.90;;
18076;SDS011;9165;45.714;11.362;2023-06-26T03:35:27;3.80;;;3.27;;
18076;SDS011;9165;45.714;11.362;2023-06-26T03:37:54;3.17;;;2.87;;
18076;SDS011;9165;45.714;11.362;2023-06-26T03:40:21;3.37;;;2.97;;
18076;SDS011;9165;45.714;11.362;2023-06-26T03:42:47;3.67;;;3.10;;
18076;SDS011;9165;45.714;11.362;2023-06-26T03:45:15;2.93;;;2.67;;
18076;SDS011;9165;45.714;11.362;2023-06-26T03:47:42;5.13;;;2.67;;
18076;SDS011;9165;45.714;11.362;2023-06-26T03:50:09;4.50;;;3.80;;
18076;SDS011;9165;45.714;11.362;2023-06-26T03:52:36;3.10;;;2.80;;
18076;SDS011;9165;45.714;11.362;2023-06-26T03:55:02;3.33;;;2.60;;
18076;SDS011;9165;45.714;11.362;2023-06-26T03:57:29;5.83;;;3.00;;
18076;SDS011;9165;45.714;11.362;2023-06-26T03:59:55;5.70;;;3.17;;
18076;SDS011;9165;45.714;11.362;2023-06-26T04:02:24;3.90;;;3.47;;
18076;SDS011;9165;45.714;11.362;2023-06-26T04:04:50;4.43;;;3.07;;
18076;SDS011;9165;45.714;11.362;2023-06-26T04:07:17;3.70;;;3.00;;
18076;SDS011;9165;45.714;11.362;2023-06-26T04:09:44;4.47;;;2.90;;
18076;SDS011;9165;45.714;11.362;2023-06-26T04:12:10;3.00;;;2.70;;
18076;SDS011;9165;45.714;11.362;2023-06-26T04:14:37;4.97;;;3.30;;
18076;SDS011;9165;45.714;11.362;2023-06-26T04:17:03;3.20;;;2.90;;
18076;SDS011;9165;45.714;11.362;2023-06-26T04:19:31;3.60;;;3.13;;
18076;SDS011;9165;45.714;11.362;2023-06-26T04:21:58;5.00;;;3.00;;
18076;SDS011;9165;45.714;11.362;2023-06-26T04:24:25;4.30;;;2.90;;
18076;SDS011;9165;45.714;11.362;2023-06-26T04:26:52;3.67;;;3.10;;
18076;SDS011;9165;45.714;11.362;2023-06-26T04:29:22;3.47;;;3.00;;
18076;SDS011;9165;45.714;11.362;2023-06-26T04:31:50;4.93;;;3.10;;
18076;SDS011;9165;45.714;11.362;2023-06-26T04:34:17;5.93;;;2.97;;
18076;SDS011;9165;45.714;11.362;2023-06-26T04:36:45;5.67;;;3.50;;
18076;SDS011;9165;45.714;11.362;2023-06-26T04:39:12;5.03;;;3.73;;
18076;SDS011;9165;45.714;11.362;2023-06-26T04:41:39;5.43;;;3.30;;
18076;SDS011;9165;45.714;11.362;2023-06-26T04:44:06;3.80;;;3.13;;
18076;SDS011;9165;45.714;11.362;2023-06-26T04:46:32;7.80;;;3.40;;
18076;SDS011;9165;45.714;11.362;2023-06-26T04:48:59;3.37;;;2.97;;
18076;SDS011;9165;45.714;11.362;2023-06-26T04:51:28;3.40;;;2.83;;
18076;SDS011;9165;45.714;11.362;2023-06-26T04:53:56;4.90;;;3.53;;
18076;SDS011;9165;45.714;11.362;2023-06-26T04:56:23;4.10;;;2.73;;
18076;SDS011;9165;45.714;11.362;2023-06-26T04:58:49;3.10;;;2.80;;
18076;SDS011;9165;45.714;11.362;2023-06-26T05:01:16;3.90;;;3.03;;
18076;SDS011;9165;45.714;11.362;2023-06-26T05:03:42;4.50;;;3.10;;
18076;SDS011;9165;45.714;11.362;2023-06-26T05:06:10;3.77;;;2.83;;
18076;SDS011;9165;45.714;11.362;2023-06-26T05:08:36;3.53;;;2.80;;
18076;SDS011;9165;45.714;11.362;2023-06-26T05:11:05;6.27;;;4.17;;
18076;SDS011;9165;45.714;11.362;2023-06-26T05:13:31;3.27;;;2.90;;
18076;SDS011;9165;45.714;11.362;2023-06-26T05:15:58;3.63;;;3.10;;
18076;SDS011;9165;45.714;11.362;2023-06-26T05:18:25;3.97;;;3.23;;
18076;SDS011;9165;45.714;11.362;2023-06-26T05:20:52;5.47;;;3.07;;
18076;SDS011;9165;45.714;11.362;2023-06-26T05:23:18;8.60;;;3.30;;
18076;SDS011;9165;45.714;11.362;2023-06-26T05:25:46;4.67;;;3.00;;
18076;SDS011;9165;45.714;11.362;2023-06-26T05:28:14;4.60;;;3.17;;
18076;SDS011;9165;45.714;11.362;2023-06-26T05:30:41;7.67;;;3.70;;
18076;SDS011;9165;45.714;11.362;2023-06-26T05:33:08;11.03;;;3.53;;
18076;SDS011;9165;45.714;11.362;2023-06-26T05:35:36;4.60;;;3.50;;
18076;SDS011;9165;45.714;11.362;2023-06-26T05:38:03;6.60;;;3.60;;
18076;SDS011;9165;45.714;11.362;2023-06-26T05:40:30;3.83;;;3.43;;
18076;SDS011;9165;45.714;11.362;2023-06-26T05:42:57;4.97;;;3.50;;
18076;SDS011;9165;45.714;11.362;2023-06-26T05:45:25;5.37;;;3.30;;
18076;SDS011;9165;45.714;11.362;2023-06-26T05:47:52;5.40;;;3.53;;
18076;SDS011;9165;45.714;11.362;2023-06-26T05:50:19;7.87;;;3.07;;
18076;SDS011;9165;45.714;11.362;2023-06-26T05:52:46;5.17;;;3.20;;
18076;SDS011;9165;45.714;11.362;2023-06-26T05:55:13;5.77;;;2.93;;
18076;SDS011;9165;45.714;11.362;2023-06-26T05:57:39;5.87;;;3.50;;
18076;SDS011;9165;45.714;11.362;2023-06-26T06:00:10;4.33;;;3.20;;
18076;SDS011;9165;45.714;11.362;2023-06-26T06:02:41;9.40;;;3.30;;
18076;SDS011;9165;45.714;11.362;2023-06-26T06:05:08;5.73;;;3.13;;
18076;SDS011;9165;45.714;11.362;2023-06-26T06:07:35;7.13;;;3.33;;
18076;SDS011;9165;45.714;11.362;2023-06-26T06:10:02;3.27;;;2.97;;
18076;SDS011;9165;45.714;11.362;2023-06-26T06:12:29;5.60;;;3.57;;
18076;SDS011;9165;45.714;11.362;2023-06-26T06:14:56;43.07;;;4.33;;
18076;SDS011;9165;45.714;11.362;2023-06-26T06:17:23;5.77;;;3.77;;
18076;SDS011;9165;45.714;11.362;2023-06-26T06:19:51;13.20;;;4.00;;
18076;SDS011;9165;45.714;11.362;2023-06-26T06:22:17;6.17;;;3.20;;
18076;SDS011;9165;45.714;11.362;2023-06-26T06:24:44;4.77;;;4.10;;
18076;SDS011;9165;45.714;11.362;2023-06-26T06:27:10;4.60;;;3.73;;
18076;SDS011;9165;45.714;11.362;2023-06-26T06:29:37;6.87;;;4.00;;
18076;SDS011;9165;45.714;11.362;2023-06-26T06:32:03;4.93;;;3.87;;
18076;SDS011;9165;45.714;11.362;2023-06-26T06:34:30;7.20;;;4.40;;
18076;SDS011;9165;45.714;11.362;2023-06-26T06:36:58;6.63;;;3.63;;
18076;SDS011;9165;45.714;11.362;2023-06-26T06:39:25;5.30;;;3.70;;
18076;SDS011;9165;45.714;11.362;2023-06-26T06:41:52;5.73;;;3.87;;
18076;SDS011;9165;45.714;11.362;2023-06-26T06:44:18;8.53;;;4.40;;
18076;SDS011;9165;45.714;11.362;2023-06-26T06:46:45;8.83;;;4.53;;
18076;SDS011;9165;45.714;11.362;2023-06-26T06:49:12;5.73;;;4.30;;
18076;SDS011;9165;45.714;11.362;2023-06-26T06:51:38;6.97;;;4.70;;
18076;SDS011;9165;45.714;11.362;2023-06-26T06:54:06;7.33;;;4.30;;
18076;SDS011;9165;45.714;11.362;2023-06-26T06:56:33;6.07;;;4.53;;
18076;SDS011;9165;45.714;11.362;2023-06-26T06:58:59;6.60;;;4.47;;
18076;SDS011;9165;45.714;11.362;2023-06-26T07:01:26;4.77;;;4.27;;
18076;SDS011;9165;45.714;11.362;2023-06-26T07:03:52;8.07;;;5.23;;
18076;SDS011;9165;45.714;11.362;2023-06-26T07:06:19;5.53;;;4.60;;
18076;SDS011;9165;45.714;11.362;2023-06-26T07:08:45;8.63;;;4.77;;
18076;SDS011;9165;45.714;11.362;2023-06-26T07:11:13;8.67;;;4.33;;
18076;SDS011;9165;45.714;11.362;2023-06-26T07:13:40;5.63;;;4.73;;
18076;SDS011;9165;45.714;11.362;2023-06-26T07:16:06;7.80;;;4.57;;
18076;SDS011;9165;45.714;11.362;2023-06-26T07:18:36;7.50;;;5.30;;
18076;SDS011;9165;45.714;11.362;2023-06-26T07:21:03;5.03;;;4.50;;
18076;SDS011;9165;45.714;11.362;2023-06-26T07:23:30;5.60;;;4.87;;
18076;SDS011;9165;45.714;11.362;2023-06-26T07:25:57;7.37;;;4.57;;
18076;SDS011;9165;45.714;11.362;2023-06-26T07:28:25;6.13;;;4.73;;
18076;SDS011;9165;45.714;11.362;2023-06-26T07:30:52;6.13;;;5.13;;
18076;SDS011;9165;45.714;11.362;2023-06-26T07:33:19;6.40;;;4.97;;
18076;SDS011;9165;45.714;11.362;2023-06-26T07:35:46;8.03;;;5.10;;
18076;SDS011;9165;45.714;11.362;2023-06-26T07:38:12;8.17;;;4.83;;
18076;SDS011;9165;45.714;11.362;2023-06-26T07:40:39;7.07;;;4.60;;
18076;SDS011;9165;45.714;11.362;2023-06-26T07:43:05;8.07;;;4.53;;
18076;SDS011;9165;45.714;11.362;2023-06-26T07:45:33;6.33;;;4.60;;
18076;SDS011;9165;45.714;11.362;2023-06-26T07:48:00;7.80;;;5.20;;
18076;SDS011;9165;45.714;11.362;2023-06-26T07:50:27;11.53;;;4.87;;
18076;SDS011;9165;45.714;11.362;2023-06-26T07:52:54;10.13;;;5.17;;
18076;SDS011;9165;45.714;11.362;2023-06-26T07:55:21;7.47;;;5.67;;
18076;SDS011;9165;45.714;11.362;2023-06-26T07:57:47;6.80;;;5.00;;
18076;SDS011;9165;45.714;11.362;2023-06-26T08:00:15;8.37;;;5.60;;
18076;SDS011;9165;45.714;11.362;2023-06-26T08:02:43;7.13;;;4.87;;
18076;SDS011;9165;45.714;11.362;2023-06-26T08:05:10;8.47;;;5.03;;
18076;SDS011;9165;45.714;11.362;2023-06-26T08:07:37;6.63;;;4.83;;
18076;SDS011;9165;45.714;11.362;2023-06-26T08:10:04;8.13;;;5.00;;
18076;SDS011;9165;45.714;11.362;2023-06-26T08:12:31;8.87;;;4.97;;
18076;SDS011;9165;45.714;11.362;2023-06-26T08:14:58;6.97;;;4.37;;
18076;SDS011;9165;45.714;11.362;2023-06-26T08:17:27;6.17;;;4.47;;
18076;SDS011;9165;45.714;11.362;2023-06-26T08:19:55;4.77;;;4.30;;
18076;SDS011;9165;45.714;11.362;2023-06-26T08:22:22;7.87;;;4.73;;
18076;SDS011;9165;45.714;11.362;2023-06-26T08:24:48;8.70;;;4.60;;
18076;SDS011;9165;45.714;11.362;2023-06-26T08:27:15;7.83;;;4.97;;
18076;SDS011;9165;45.714;11.362;2023-06-26T08:29:42;8.67;;;5.07;;
18076;SDS011;9165;45.714;11.362;2023-06-26T08:32:08;7.17;;;4.57;;
18076;SDS011;9165;45.714;11.362;2023-06-26T08:34:35;7.30;;;5.07;;
18076;SDS011;9165;45.714;11.362;2023-06-26T08:37:03;8.27;;;4.43;;
18076;SDS011;9165;45.714;11.362;2023-06-26T08:39:29;4.80;;;4.13;;
18076;SDS011;9165;45.714;11.362;2023-06-26T08:41:56;6.43;;;4.63;;
18076;SDS011;9165;45.714;11.362;2023-06-26T08:44:23;8.17;;;4.60;;
18076;SDS011;9165;45.714;11.362;2023-06-26T08:46:50;6.47;;;4.90;;
18076;SDS011;9165;45.714;11.362;2023-06-26T08:49:18;7.93;;;5.37;;
18076;SDS011;9165;45.714;11.362;2023-06-26T08:51:49;7.17;;;5.07;;
18076;SDS011;9165;45.714;11.362;2023-06-26T08:54:19;7.67;;;4.20;;
18076;SDS011;9165;45.714;11.362;2023-06-26T08:56:48;6.07;;;4.60;;
18076;SDS011;9165;45.714;11.362;2023-06-26T08:59:15;15.97;;;11.20;;
18076;SDS011;9165;45.714;11.362;2023-06-26T09:01:42;14.83;;;9.10;;
18076;SDS011;9165;45.714;11.362;2023-06-26T09:04:09;7.33;;;4.93;;
18076;SDS011;9165;45.714;11.362;2023-06-26T09:06:35;7.33;;;5.03;;
18076;SDS011;9165;45.714;11.362;2023-06-26T09:09:02;6.17;;;4.97;;
18076;SDS011;9165;45.714;11.362;2023-06-26T09:11:30;8.63;;;5.30;;
18076;SDS011;9165;45.714;11.362;2023-06-26T09:13:57;8.37;;;5.30;;
18076;SDS011;9165;45.714;11.362;2023-06-26T09:16:24;7.30;;;4.53;;
18076;SDS011;9165;45.714;11.362;2023-06-26T09:18:51;6.97;;;5.13;;
18076;SDS011;9165;45.714;11.362;2023-06-26T09:21:18;8.13;;;5.40;;
18076;SDS011;9165;45.714;11.362;2023-06-26T09:23:44;9.60;;;5.77;;
18076;SDS011;9165;45.714;11.362;2023-06-26T09:26:12;7.73;;;4.97;;
18076;SDS011;9165;45.714;11.362;2023-06-26T09:28:42;7.40;;;5.50;;
18076;SDS011;9165;45.714;11.362;2023-06-26T09:31:09;9.50;;;5.33;;
18076;SDS011;9165;45.714;11.362;2023-06-26T09:33:36;8.03;;;5.87;;
18076;SDS011;9165;45.714;11.362;2023-06-26T09:36:04;6.47;;;5.03;;
18076;SDS011;9165;45.714;11.362;2023-06-26T09:38:31;8.03;;;5.70;;
18076;SDS011;9165;45.714;11.362;2023-06-26T09:40:57;5.77;;;4.93;;
18076;SDS011;9165;45.714;11.362;2023-06-26T09:43:24;6.97;;;5.03;;
18076;SDS011;9165;45.714;11.362;2023-06-26T09:45:53;6.57;;;5.40;;
18076;SDS011;9165;45.714;11.362;2023-06-26T09:48:20;7.70;;;5.40;;
18076;SDS011;9165;45.714;11.362;2023-06-26T09:50:47;7.17;;;4.87;;
18076;SDS011;9165;45.714;11.362;2023-06-26T09:53:14;8.17;;;5.60;;
18076;SDS011;9165;45.714;11.362;2023-06-26T09:55:43;10.43;;;5.50;;
18076;SDS011;9165;45.714;11.362;2023-06-26T09:58:10;6.77;;;4.67;;
18076;SDS011;9165;45.714;11.362;2023-06-26T10:00:39;6.63;;;5.27;;
18076;SDS011;9165;45.714;11.362;2023-06-26T10:03:07;6.93;;;5.03;;
18076;SDS011;9165;45.714;11.362;2023-06-26T10:05:34;7.97;;;4.93;;
18076;SDS011;9165;45.714;11.362;2023-06-26T10:08:01;7.80;;;5.70;;
18076;SDS011;9165;45.714;11.362;2023-06-26T10:10:28;8.67;;;5.77;;
18076;SDS011;9165;45.714;11.362;2023-06-26T10:12:59;6.03;;;5.13;;
18076;SDS011;9165;45.714;11.362;2023-06-26T10:15:25;8.47;;;5.30;;
18076;SDS011;9165;45.714;11.362;2023-06-26T10:17:53;9.60;;;6.50;;
18076;SDS011;9165;45.714;11.362;2023-06-26T10:20:23;6.03;;;5.33;;
18076;SDS011;9165;45.714;11.362;2023-06-26T10:22:51;7.40;;;5.40;;
18076;SDS011;9165;45.714;11.362;2023-06-26T10:25:19;6.53;;;5.18;;
18076;SDS011;9165;45.714;11.362;2023-06-26T10:27:49;7.38;;;6.05;;
18076;SDS011;9165;45.714;11.362;2023-06-26T10:30:17;10.33;;;5.90;;
18076;SDS011;9165;45.714;11.362;2023-06-26T10:32:46;13.10;;;5.68;;
18076;SDS011;9165;45.714;11.362;2023-06-26T10:35:13;6.18;;;5.47;;
18076;SDS011;9165;45.714;11.362;2023-06-26T10:37:44;7.80;;;5.97;;
18076;SDS011;9165;45.714;11.362;2023-06-26T10:40:11;10.93;;;6.00;;
18076;SDS011;9165;45.714;11.362;2023-06-26T10:42:39;9.30;;;5.90;;
18076;SDS011;9165;45.714;11.362;2023-06-26T10:45:09;7.00;;;5.38;;
18076;SDS011;9165;45.714;11.362;2023-06-26T10:47:36;7.57;;;5.20;;
18076;SDS011;9165;45.714;11.362;2023-06-26T10:50:23;9.90;;;5.88;;
18076;SDS011;9165;45.714;11.362;2023-06-26T10:53:10;6.82;;;5.85;;
18076;SDS011;9165;45.714;11.362;2023-06-26T10:55:43;9.18;;;5.43;;
18076;SDS011;9165;45.714;11.362;2023-06-26T10:58:29;7.15;;;5.60;;
18076;SDS011;9165;45.714;11.362;2023-06-26T11:01:17;12.93;;;5.35;;
18076;SDS011;9165;45.714;11.362;2023-06-26T11:03:44;6.10;;;5.50;;
18076;SDS011;9165;45.714;11.362;2023-06-26T11:06:11;8.98;;;6.20;;
18076;SDS011;9165;45.714;11.362;2023-06-26T11:08:46;9.75;;;6.00;;
18076;SDS011;9165;45.714;11.362;2023-06-26T11:11:13;7.00;;;5.50;;
18076;SDS011;9165;45.714;11.362;2023-06-26T11:13:39;6.90;;;5.53;;
18076;SDS011;9165;45.714;11.362;2023-06-26T11:16:06;7.57;;;5.85;;
18076;SDS011;9165;45.714;11.362;2023-06-26T11:18:32;7.88;;;6.10;;
18076;SDS011;9165;45.714;11.362;2023-06-26T11:21:04;7.03;;;5.20;;
18076;SDS011;9165;45.714;11.362;2023-06-26T11:23:31;7.40;;;5.95;;
18076;SDS011;9165;45.714;11.362;2023-06-26T11:26:13;14.75;;;6.13;;
18076;SDS011;9165;45.714;11.362;2023-06-26T11:28:45;6.70;;;5.30;;
18076;SDS011;9165;45.714;11.362;2023-06-26T11:31:23;8.07;;;6.00;;
18076;SDS011;9165;45.714;11.362;2023-06-26T11:33:49;10.00;;;6.13;;
18076;SDS011;9165;45.714;11.362;2023-06-26T11:36:16;7.30;;;6.22;;
18076;SDS011;9165;45.714;11.362;2023-06-26T11:38:42;6.47;;;5.55;;
18076;SDS011;9165;45.714;11.362;2023-06-26T11:41:09;11.15;;;5.45;;
18076;SDS011;9165;45.714;11.362;2023-06-26T11:43:37;8.63;;;5.50;;
18076;SDS011;9165;45.714;11.362;2023-06-26T11:46:04;6.95;;;6.20;;
18076;SDS011;9165;45.714;11.362;2023-06-26T11:48:31;9.40;;;5.97;;
18076;SDS011;9165;45.714;11.362;2023-06-26T11:50:57;8.05;;;5.75;;
18076;SDS011;9165;45.714;11.362;2023-06-26T11:53:24;7.25;;;5.40;;
18076;SDS011;9165;45.714;11.362;2023-06-26T11:55:50;8.68;;;5.35;;
18076;SDS011;9165;45.714;11.362;2023-06-26T11:58:17;8.25;;;6.50;;
18076;SDS011;9165;45.714;11.362;2023-06-26T12:00:47;7.30;;;5.35;;
18076;SDS011;9165;45.714;11.362;2023-06-26T12:03:13;10.60;;;6.20;;
18076;SDS011;9165;45.714;11.362;2023-06-26T12:05:40;8.27;;;5.72;;
18076;SDS011;9165;45.714;11.362;2023-06-26T12:08:10;21.15;;;6.45;;
18076;SDS011;9165;45.714;11.362;2023-06-26T12:10:36;6.65;;;5.78;;
18076;SDS011;9165;45.714;11.362;2023-06-26T12:13:03;7.40;;;5.60;;
18076;SDS011;9165;45.714;11.362;2023-06-26T12:15:30;6.68;;;5.80;;
18076;SDS011;9165;45.714;11.362;2023-06-26T12:17:58;9.20;;;6.03;;
18076;SDS011;9165;45.714;11.362;2023-06-26T12:20:25;11.38;;;5.40;;
18076;SDS011;9165;45.714;11.362;2023-06-26T12:22:56;8.55;;;5.85;;
18076;SDS011;9165;45.714;11.362;2023-06-26T12:25:23;7.30;;;5.90;;
18076;SDS011;9165;45.714;11.362;2023-06-26T12:27:49;8.32;;;5.28;;
18076;SDS011;9165;45.714;11.362;2023-06-26T12:30:16;8.73;;;5.25;;
18076;SDS011;9165;45.714;11.362;2023-06-26T12:32:44;10.00;;;6.10;;
18076;SDS011;9165;45.714;11.362;2023-06-26T12:35:12;6.95;;;5.50;;
18076;SDS011;9165;45.714;11.362;2023-06-26T12:37:38;6.93;;;5.30;;
18076;SDS011;9165;45.714;11.362;2023-06-26T12:40:15;6.57;;;5.72;;
18076;SDS011;9165;45.714;11.362;2023-06-26T12:42:42;6.95;;;5.60;;
18076;SDS011;9165;45.714;11.362;2023-06-26T12:45:12;6.65;;;5.20;;
18076;SDS011;9165;45.714;11.362;2023-06-26T12:47:39;6.45;;;5.10;;
18076;SDS011;9165;45.714;11.362;2023-06-26T12:50:07;8.65;;;4.85;;
18076;SDS011;9165;45.714;11.362;2023-06-26T12:52:35;6.05;;;5.45;;
18076;SDS011;9165;45.714;11.362;2023-06-26T12:55:02;9.15;;;5.97;;
18076;SDS011;9165;45.714;11.362;2023-06-26T12:57:28;8.52;;;5.15;;
18076;SDS011;9165;45.714;11.362;2023-06-26T12:59:55;8.38;;;5.10;;
18076;SDS011;9165;45.714;11.362;2023-06-26T13:02:22;5.40;;;4.90;;
18076;SDS011;9165;45.714;11.362;2023-06-26T13:04:48;6.03;;;5.35;;
18076;SDS011;9165;45.714;11.362;2023-06-26T13:07:15;7.72;;;5.40;;
18076;SDS011;9165;45.714;11.362;2023-06-26T13:09:43;9.95;;;4.93;;
18076;SDS011;9165;45.714;11.362;2023-06-26T13:12:11;10.30;;;4.80;;
18076;SDS011;9165;45.714;11.362;2023-06-26T13:14:37;8.82;;;5.05;;
18076;SDS011;9165;45.714;11.362;2023-06-26T13:17:04;12.18;;;5.18;;
18076;SDS011;9165;45.714;11.362;2023-06-26T13:19:31;7.55;;;6.05;;
18076;SDS011;9165;45.714;11.362;2023-06-26T13:21:58;4.65;;;4.15;;
18076;SDS011;9165;45.714;11.362;2023-06-26T13:24:25;8.40;;;4.55;;
18076;SDS011;9165;45.714;11.362;2023-06-26T13:26:53;9.10;;;4.47;;
18076;SDS011;9165;45.714;11.362;2023-06-26T13:29:19;7.55;;;4.50;;
18076;SDS011;9165;45.714;11.362;2023-06-26T13:31:46;7.38;;;4.78;;
18076;SDS011;9165;45.714;11.362;2023-06-26T13:34:19;11.40;;;4.65;;
18076;SDS011;9165;45.714;11.362;2023-06-26T13:36:46;10.77;;;4.20;;
18076;SDS011;9165;45.714;11.362;2023-06-26T13:39:12;6.82;;;4.05;;
18076;SDS011;9165;45.714;11.362;2023-06-26T13:41:39;6.55;;;4.18;;
18076;SDS011;9165;45.714;11.362;2023-06-26T13:44:07;9.30;;;4.40;;
18076;SDS011;9165;45.714;11.362;2023-06-26T13:46:33;6.55;;;4.55;;
18076;SDS011;9165;45.714;11.362;2023-06-26T13:49:00;8.00;;;4.43;;
18076;SDS011;9165;45.714;11.362;2023-06-26T13:51:26;6.57;;;4.07;;
18076;SDS011;9165;45.714;11.362;2023-06-26T13:53:53;6.68;;;4.32;;
18076;SDS011;9165;45.714;11.362;2023-06-26T13:56:20;8.48;;;4.47;;
18076;SDS011;9165;45.714;11.362;2023-06-26T13:58:47;8.60;;;3.88;;
18076;SDS011;9165;45.714;11.362;2023-06-26T14:01:16;7.28;;;4.10;;
18076;SDS011;9165;45.714;11.362;2023-06-26T14:03:42;5.13;;;4.05;;
18076;SDS011;9165;45.714;11.362;2023-06-26T14:06:09;6.45;;;4.60;;
18076;SDS011;9165;45.714;11.362;2023-06-26T14:08:36;5.57;;;4.15;;
18076;SDS011;9165;45.714;11.362;2023-06-26T14:11:02;8.48;;;4.53;;
18076;SDS011;9165;45.714;11.362;2023-06-26T14:13:29;6.47;;;4.13;;
18076;SDS011;9165;45.714;11.362;2023-06-26T14:15:55;10.43;;;4.05;;
18076;SDS011;9165;45.714;11.362;2023-06-26T14:18:23;9.48;;;3.95;;
18076;SDS011;9165;45.714;11.362;2023-06-26T14:20:50;5.97;;;4.30;;
18076;SDS011;9165;45.714;11.362;2023-06-26T14:23:16;6.15;;;3.80;;
18076;SDS011;9165;45.714;11.362;2023-06-26T14:25:43;6.20;;;4.03;;
18076;SDS011;9165;45.714;11.362;2023-06-26T14:28:09;7.10;;;4.00;;
18076;SDS011;9165;45.714;11.362;2023-06-26T14:30:36;6.18;;;4.05;;
18076;SDS011;9165;45.714;11.362;2023-06-26T14:33:03;9.20;;;4.13;;
18076;SDS011;9165;45.714;11.362;2023-06-26T14:35:31;4.70;;;4.13;;
18076;SDS011;9165;45.714;11.362;2023-06-26T14:37:58;6.47;;;3.75;;
18076;SDS011;9165;45.714;11.362;2023-06-26T14:40:24;4.70;;;3.72;;
18076;SDS011;9165;45.714;11.362;2023-06-26T14:42:51;15.25;;;5.10;;
18076;SDS011;9165;45.714;11.362;2023-06-26T14:45:18;5.53;;;3.85;;
18076;SDS011;9165;45.714;11.362;2023-06-26T14:47:44;8.07;;;4.22;;